F/V Vag A Lamm — FJ5011 — position and weather

sailwx.info

Track history (hours):
 
Tides and Currents Weather Stations Pressure Air Temp Water Temp Dewpoint Dewpoint Depression Visibility Wind Speed Wind Dir Waves Ship Positions

F/V Vag A Lamm

Last reported at 2017-Oct-22 21:24 UTC. Time now 2017-Oct-23 06:30 UTC.
Position N 48°06' W 004°19'.

Length 15 m.

Type: Fishing. MMSI: 228208700.

Date/timePositionNaut miles runAvg speedWind from/ knotsBaromVisibWave heightAir tempDewpointWater temp
2017-Oct-22 21:24N 48°06' W 004°19'1 1.6
2017-Oct-22 21:01N 48°07' W 004°19'4 8.1
2017-Oct-22 20:31N 48°07' W 004°25'2 3.6
2017-Oct-22 20:00N 48°08' W 004°27'4 7.2
2017-Oct-22 19:31N 48°12' W 004°27'2 3.6
2017-Oct-22 19:00N 48°11' W 004°30'4 8.2
2017-Oct-22 18:30N 48°08' W 004°35'3 7.0
2017-Oct-22 18:00N 48°11' W 004°38'3 5.1
2017-Oct-22 17:30N 48°13' W 004°41'4 8.8
2017-Oct-22 17:00N 48°10' W 004°36'3 6.1
2017-Oct-22 16:30N 48°09' W 004°31'4 8.2
2017-Oct-22 16:00N 48°08' W 004°26'4 8.8
2017-Oct-22 15:30N 48°06' W 004°20'0 1.0
2017-Oct-22 15:00N 48°06' W 004°19'  
2017-Oct-18 00:35N 48°06' W 004°19'0 0.0
2017-Oct-18 00:30N 48°06' W 004°19'0 0.0
2017-Oct-18 00:00N 48°06' W 004°19'0 0.4
2017-Oct-17 23:30N 48°06' W 004°19'4 7.5
2017-Oct-17 23:01N 48°10' W 004°21'4 8.2
2017-Oct-17 22:30N 48°12' W 004°26'3 6.6
2017-Oct-17 22:00N 48°09' W 004°27'2 3.3
2017-Oct-17 21:30N 48°09' W 004°29'4 8.5
2017-Oct-17 21:00N 48°10' W 004°35'4 8.5
2017-Oct-17 20:30N 48°14' W 004°38'4 8.3
2017-Oct-17 20:00N 48°17' W 004°40'2 4.2
2017-Oct-17 19:30N 48°17' W 004°43'0 0.9
2017-Oct-17 19:00N 48°17' W 004°43'0 0.8
2017-Oct-17 18:31N 48°17' W 004°42'1 1.6
2017-Oct-17 18:00N 48°18' W 004°42'4 8.1
2017-Oct-17 17:30N 48°17' W 004°48'3 6.5
2017-Oct-17 17:00N 48°14' W 004°46'5 9.0
2017-Oct-17 16:30N 48°12' W 004°41'5 9.5
2017-Oct-17 16:00N 48°10' W 004°35'5 9.6
2017-Oct-17 15:30N 48°08' W 004°28'5 9.3
2017-Oct-17 15:01N 48°07' W 004°21'2 3.1
2017-Oct-17 14:30N 48°06' W 004°19'0 0.0
2017-Oct-16 21:19N 48°06' W 004°19'1 1.9
2017-Oct-16 21:01N 48°06' W 004°19'4 8.7
2017-Oct-16 20:31N 48°09' W 004°25'3 5.0
2017-Oct-16 20:00N 48°09' W 004°28'4 8.7
2017-Oct-16 19:31N 48°09' W 004°35'4 8.7
2017-Oct-16 19:01N 48°10' W 004°41'2 3.7
2017-Oct-16 18:31N 48°09' W 004°39'4 8.4
2017-Oct-16 18:01N 48°07' W 004°33'4 7.1
2017-Oct-16 17:30N 48°10' W 004°30'1 3.0
2017-Oct-16 17:00N 48°11' W 004°28'2 3.7
2017-Oct-16 16:31N 48°09' W 004°28'3 5.6
2017-Oct-16 16:00N 48°07' W 004°25'4 8.2
2017-Oct-16 15:31N 48°06' W 004°19'0 0.0
2017-Oct-16 11:33N 48°06' W 004°19'0 0.0
2017-Oct-16 11:30N 48°06' W 004°19'0 0.0
2017-Oct-15 23:30N 48°06' W 004°19'0 0.4
2017-Oct-15 23:00N 48°06' W 004°19'0 0.0
2017-Oct-15 22:31N 48°06' W 004°19'2 4.0
2017-Oct-15 22:01N 48°07' W 004°22'4 8.1
2017-Oct-15 21:30N 48°08' W 004°28'2 4.5
2017-Oct-15 21:00N 48°11' W 004°28'2 4.2
2017-Oct-15 20:30N 48°09' W 004°26'4 8.4
2017-Oct-15 20:00N 48°09' W 004°33'4 8.4
2017-Oct-15 19:30N 48°11' W 004°38'3 5.9
2017-Oct-15 19:00N 48°08' W 004°35'4 8.2
2017-Oct-15 18:30N 48°09' W 004°29'1 1.1
2017-Oct-15 18:01N 48°09' W 004°29'1 2.0
2017-Oct-15 17:30N 48°08' W 004°29'0 0.4
2017-Oct-15 17:01N 48°08' W 004°29'1 2.3
2017-Oct-15 16:30N 48°07' W 004°28'1 1.1
2017-Oct-15 16:01N 48°07' W 004°28'4 7.2
2017-Oct-15 15:30N 48°07' W 004°23'3 5.6
2017-Oct-15 15:00N 48°06' W 004°19'  
2017-Oct-13 03:28N 48°06' W 004°19'0 0.4
2017-Oct-13 03:01N 48°06' W 004°19'0 0.0
2017-Oct-13 02:31N 48°06' W 004°19'0 0.0
2017-Oct-13 02:01N 48°06' W 004°19'0 0.0
2017-Oct-13 01:31N 48°06' W 004°19'0 0.0
2017-Oct-13 01:01N 48°06' W 004°19'0 0.0
2017-Oct-13 00:31N 48°06' W 004°19'0 0.0
2017-Oct-13 00:00N 48°06' W 004°19'0 0.0
2017-Oct-12 23:31N 48°06' W 004°19'0 0.0
2017-Oct-12 23:00N 48°06' W 004°19'0 0.0
2017-Oct-12 22:30N 48°06' W 004°19'0 0.0
2017-Oct-12 22:01N 48°06' W 004°19'4 7.5
2017-Oct-12 21:30N 48°08' W 004°24'  
Track history (hours):
 
Tides and Currents Weather Stations Pressure Air Temp Water Temp Dewpoint Dewpoint Depression Visibility Wind Speed Wind Dir Waves Ship Positions

F/V Vag A Lamm

Last reported at 2017-Oct-22 21:24 UTC. Time now 2017-Oct-23 06:30 UTC.
Position N 48°06' W 004°19'.

Length 15 m.

Type: Fishing. MMSI: 228208700.

Date/timePositionNaut miles runAvg speedWind from/ knotsBaromVisibWave heightAir tempDewpointWater temp
2017-Oct-22 21:24N 48°06' W 004°19'1 1.6
2017-Oct-22 21:01N 48°07' W 004°19'4 8.1
2017-Oct-22 20:31N 48°07' W 004°25'2 3.6
2017-Oct-22 20:00N 48°08' W 004°27'4 7.2
2017-Oct-22 19:31N 48°12' W 004°27'2 3.6
2017-Oct-22 19:00N 48°11' W 004°30'4 8.2
2017-Oct-22 18:30N 48°08' W 004°35'3 7.0
2017-Oct-22 18:00N 48°11' W 004°38'3 5.1
2017-Oct-22 17:30N 48°13' W 004°41'4 8.8
2017-Oct-22 17:00N 48°10' W 004°36'3 6.1
2017-Oct-22 16:30N 48°09' W 004°31'4 8.2
2017-Oct-22 16:00N 48°08' W 004°26'4 8.8
2017-Oct-22 15:30N 48°06' W 004°20'0 1.0
2017-Oct-22 15:00N 48°06' W 004°19'  
2017-Oct-18 00:35N 48°06' W 004°19'0 0.0
2017-Oct-18 00:30N 48°06' W 004°19'0 0.0
2017-Oct-18 00:00N 48°06' W 004°19'0 0.4
2017-Oct-17 23:30N 48°06' W 004°19'4 7.5
2017-Oct-17 23:01N 48°10' W 004°21'4 8.2
2017-Oct-17 22:30N 48°12' W 004°26'3 6.6
2017-Oct-17 22:00N 48°09' W 004°27'2 3.3
2017-Oct-17 21:30N 48°09' W 004°29'4 8.5
2017-Oct-17 21:00N 48°10' W 004°35'4 8.5
2017-Oct-17 20:30N 48°14' W 004°38'4 8.3
2017-Oct-17 20:00N 48°17' W 004°40'2 4.2
2017-Oct-17 19:30N 48°17' W 004°43'0 0.9
2017-Oct-17 19:00N 48°17' W 004°43'0 0.8
2017-Oct-17 18:31N 48°17' W 004°42'1 1.6
2017-Oct-17 18:00N 48°18' W 004°42'4 8.1
2017-Oct-17 17:30N 48°17' W 004°48'3 6.5
2017-Oct-17 17:00N 48°14' W 004°46'5 9.0
2017-Oct-17 16:30N 48°12' W 004°41'5 9.5
2017-Oct-17 16:00N 48°10' W 004°35'5 9.6
2017-Oct-17 15:30N 48°08' W 004°28'5 9.3
2017-Oct-17 15:01N 48°07' W 004°21'2 3.1
2017-Oct-17 14:30N 48°06' W 004°19'0 0.0
2017-Oct-16 21:19N 48°06' W 004°19'1 1.9
2017-Oct-16 21:01N 48°06' W 004°19'4 8.7
2017-Oct-16 20:31N 48°09' W 004°25'3 5.0
2017-Oct-16 20:00N 48°09' W 004°28'4 8.7
2017-Oct-16 19:31N 48°09' W 004°35'4 8.7
2017-Oct-16 19:01N 48°10' W 004°41'2 3.7
2017-Oct-16 18:31N 48°09' W 004°39'4 8.4
2017-Oct-16 18:01N 48°07' W 004°33'4 7.1
2017-Oct-16 17:30N 48°10' W 004°30'1 3.0
2017-Oct-16 17:00N 48°11' W 004°28'2 3.7
2017-Oct-16 16:31N 48°09' W 004°28'3 5.6
2017-Oct-16 16:00N 48°07' W 004°25'4 8.2
2017-Oct-16 15:31N 48°06' W 004°19'0 0.0
2017-Oct-16 11:33N 48°06' W 004°19'0 0.0
2017-Oct-16 11:30N 48°06' W 004°19'0 0.0
2017-Oct-15 23:30N 48°06' W 004°19'0 0.4
2017-Oct-15 23:00N 48°06' W 004°19'0 0.0
2017-Oct-15 22:31N 48°06' W 004°19'2 4.0
2017-Oct-15 22:01N 48°07' W 004°22'4 8.1
2017-Oct-15 21:30N 48°08' W 004°28'2 4.5
2017-Oct-15 21:00N 48°11' W 004°28'2 4.2
2017-Oct-15 20:30N 48°09' W 004°26'4 8.4
2017-Oct-15 20:00N 48°09' W 004°33'4 8.4
2017-Oct-15 19:30N 48°11' W 004°38'3 5.9
2017-Oct-15 19:00N 48°08' W 004°35'4 8.2
2017-Oct-15 18:30N 48°09' W 004°29'1 1.1
2017-Oct-15 18:01N 48°09' W 004°29'1 2.0
2017-Oct-15 17:30N 48°08' W 004°29'0 0.4
2017-Oct-15 17:01N 48°08' W 004°29'1 2.3
2017-Oct-15 16:30N 48°07' W 004°28'1 1.1
2017-Oct-15 16:01N 48°07' W 004°28'4 7.2
2017-Oct-15 15:30N 48°07' W 004°23'3 5.6
2017-Oct-15 15:00N 48°06' W 004°19'  
2017-Oct-13 03:28N 48°06' W 004°19'0 0.4
2017-Oct-13 03:01N 48°06' W 004°19'0 0.0
2017-Oct-13 02:31N 48°06' W 004°19'0 0.0
2017-Oct-13 02:01N 48°06' W 004°19'0 0.0
2017-Oct-13 01:31N 48°06' W 004°19'0 0.0
2017-Oct-13 01:01N 48°06' W 004°19'0 0.0
2017-Oct-13 00:31N 48°06' W 004°19'0 0.0
2017-Oct-13 00:00N 48°06' W 004°19'0 0.0
2017-Oct-12 23:31N 48°06' W 004°19'0 0.0
2017-Oct-12 23:00N 48°06' W 004°19'0 0.0
2017-Oct-12 22:30N 48°06' W 004°19'0 0.0
2017-Oct-12 22:01N 48°06' W 004°19'4 7.5
2017-Oct-12 21:30N 48°08' W 004°24'  

Dump ship's entire track history